Airfield :







YOU CAN JOIN US ON...

 
LOGIN :

Register | Disclaimer

   EN    FR    IT 

 









Legend :    VFR   Marginal VFR   IFR   Intensive IFR   Very Intensive IFR
Visi :
Ceiling :
>= 8 km
>= 3000ft
5 to 8 km
1000 to 3000 ft
1500m to 5 km
500 to 1000 ft
800 to 1500m
200 to 500 ft
< 800m
< 200 ft
Symbols :   Thunderstorms  Fog  Heavy snow  Heavy precipitations  Wind > 20 kt







- Airport Elevation : 165 ft
- IATA code : SFJ


BGSF - KangerLussuaq

CURRENT METAR :
  • 201550Z AUTO 22004KT 170V280 9999NDV FEW100/// SCT120/// BKN160/// 02/M15 Q1001

EXPIRED METARs :
  • 201450Z AUTO 23004KT 200V270 9999NDV FEW110/// SCT150/// BKN220/// 00/M14 Q1002
  • 201350Z AUTO 23004KT 180V260 9999NDV FEW170/// M02/M11 Q1002

TAF TAF BGSF
Valid from the 20 at 12:00 until the 20 at 23:00 UTC


201052Z 2012/2023 08008KT 9999 BKN200
TEMPO 2021/2023 BKN080
BGGL FIR / North America



MET'MAP, your aeronautical weather chart ! - Copyright ORBIFLY December 2007 - Disclaimer

ORBIFLY MET'MAP TEAM :

Programming & Development : Alexandra Zaïnal
Concept & Development : Baudouin d'Aumeries
Co-Development & Prog : Marc-Olivier Méhu
Technical & hardware support : Manuel Goepfert

Contact : metmap@orbifly.com




SOURCES & CREDITS :

   NOAA